sensor_id;sensor_type;location;lat;lon;timestamp;temperature;humidity
4615;DHT22;2320;51.362;6.946;2022-07-04T00:02:14;14.60;99.90
4615;DHT22;2320;51.362;6.946;2022-07-04T00:04:39;14.60;99.90
4615;DHT22;2320;51.362;6.946;2022-07-04T00:07:05;14.60;99.90
4615;DHT22;2320;51.362;6.946;2022-07-04T00:09:30;14.50;99.90
4615;DHT22;2320;51.362;6.946;2022-07-04T00:11:56;14.50;99.90
4615;DHT22;2320;51.362;6.946;2022-07-04T00:14:21;14.30;99.90
4615;DHT22;2320;51.362;6.946;2022-07-04T00:16:47;14.00;99.90
4615;DHT22;2320;51.362;6.946;2022-07-04T00:19:12;14.00;99.90
4615;DHT22;2320;51.362;6.946;2022-07-04T00:21:38;13.90;99.90
4615;DHT22;2320;51.362;6.946;2022-07-04T00:24:03;14.00;99.90
4615;DHT22;2320;51.362;6.946;2022-07-04T00:26:29;13.90;99.90
4615;DHT22;2320;51.362;6.946;2022-07-04T00:28:54;13.90;99.90
4615;DHT22;2320;51.362;6.946;2022-07-04T00:31:21;13.80;99.90
4615;DHT22;2320;51.362;6.946;2022-07-04T00:33:46;13.80;99.90
4615;DHT22;2320;51.362;6.946;2022-07-04T00:36:12;13.80;99.90
4615;DHT22;2320;51.362;6.946;2022-07-04T00:38:38;13.60;99.90
4615;DHT22;2320;51.362;6.946;2022-07-04T00:41:03;13.70;99.90
4615;DHT22;2320;51.362;6.946;2022-07-04T00:43:29;13.70;99.90
4615;DHT22;2320;51.362;6.946;2022-07-04T00:45:55;13.60;99.90
4615;DHT22;2320;51.362;6.946;2022-07-04T00:48:20;13.70;99.90
4615;DHT22;2320;51.362;6.946;2022-07-04T00:50:46;13.80;99.90
4615;DHT22;2320;51.362;6.946;2022-07-04T00:53:15;13.90;99.90
4615;DHT22;2320;51.362;6.946;2022-07-04T00:55:41;13.90;99.90
4615;DHT22;2320;51.362;6.946;2022-07-04T00:58:08;13.80;99.90
4615;DHT22;2320;51.362;6.946;2022-07-04T01:00:33;13.80;99.90
4615;DHT22;2320;51.362;6.946;2022-07-04T01:02:59;13.80;99.90
4615;DHT22;2320;51.362;6.946;2022-07-04T01:05:24;13.70;99.90
4615;DHT22;2320;51.362;6.946;2022-07-04T01:07:50;13.60;99.90
4615;DHT22;2320;51.362;6.946;2022-07-04T01:10:15;13.50;99.90
4615;DHT22;2320;51.362;6.946;2022-07-04T01:12:41;13.40;99.90
4615;DHT22;2320;51.362;6.946;2022-07-04T01:15:07;13.30;99.90
4615;DHT22;2320;51.362;6.946;2022-07-04T01:17:33;13.10;99.90
4615;DHT22;2320;51.362;6.946;2022-07-04T01:19:58;13.20;99.90
4615;DHT22;2320;51.362;6.946;2022-07-04T01:22:24;13.30;99.90
4615;DHT22;2320;51.362;6.946;2022-07-04T01:24:50;13.20;99.90
4615;DHT22;2320;51.362;6.946;2022-07-04T01:27:15;13.00;99.90
4615;DHT22;2320;51.362;6.946;2022-07-04T01:29:41;13.00;99.90
4615;DHT22;2320;51.362;6.946;2022-07-04T01:32:07;13.00;99.90
4615;DHT22;2320;51.362;6.946;2022-07-04T01:34:33;13.00;99.90
4615;DHT22;2320;51.362;6.946;2022-07-04T01:36:59;12.80;99.90
4615;DHT22;2320;51.362;6.946;2022-07-04T01:39:24;12.90;99.90
4615;DHT22;2320;51.362;6.946;2022-07-04T01:41:50;13.00;99.90
4615;DHT22;2320;51.362;6.946;2022-07-04T01:44:15;13.10;99.90
4615;DHT22;2320;51.362;6.946;2022-07-04T01:46:41;13.10;99.90
4615;DHT22;2320;51.362;6.946;2022-07-04T01:49:06;13.10;99.90
4615;DHT22;2320;51.362;6.946;2022-07-04T01:51:32;13.00;99.90
4615;DHT22;2320;51.362;6.946;2022-07-04T01:53:58;12.90;99.90
4615;DHT22;2320;51.362;6.946;2022-07-04T01:56:23;12.80;99.90
4615;DHT22;2320;51.362;6.946;2022-07-04T01:58:48;12.60;99.90
4615;DHT22;2320;51.362;6.946;2022-07-04T02:01:14;12.60;99.90
4615;DHT22;2320;51.362;6.946;2022-07-04T02:03:58;12.60;99.90
4615;DHT22;2320;51.362;6.946;2022-07-04T02:06:23;12.50;99.90
4615;DHT22;2320;51.362;6.946;2022-07-04T02:08:49;12.20;99.90
4615;DHT22;2320;51.362;6.946;2022-07-04T02:11:33;12.30;99.90
4615;DHT22;2320;51.362;6.946;2022-07-04T02:14:18;12.50;99.90
4615;DHT22;2320;51.362;6.946;2022-07-04T02:16:44;12.60;99.90
4615;DHT22;2320;51.362;6.946;2022-07-04T02:19:09;12.60;99.90
4615;DHT22;2320;51.362;6.946;2022-07-04T02:21:35;12.60;99.90
4615;DHT22;2320;51.362;6.946;2022-07-04T02:24:01;12.40;99.90
4615;DHT22;2320;51.362;6.946;2022-07-04T02:26:26;12.10;99.90
4615;DHT22;2320;51.362;6.946;2022-07-04T02:28:52;12.20;99.90
4615;DHT22;2320;51.362;6.946;2022-07-04T02:31:17;12.20;99.90
4615;DHT22;2320;51.362;6.946;2022-07-04T02:33:43;12.30;99.90
4615;DHT22;2320;51.362;6.946;2022-07-04T02:36:08;12.40;99.90
4615;DHT22;2320;51.362;6.946;2022-07-04T02:38:34;12.50;99.90
4615;DHT22;2320;51.362;6.946;2022-07-04T02:40:59;12.60;99.90
4615;DHT22;2320;51.362;6.946;2022-07-04T02:43:25;12.50;99.90
4615;DHT22;2320;51.362;6.946;2022-07-04T02:45:50;12.40;99.90
4615;DHT22;2320;51.362;6.946;2022-07-04T02:48:16;12.40;99.90
4615;DHT22;2320;51.362;6.946;2022-07-04T02:50:42;12.40;99.90
4615;DHT22;2320;51.362;6.946;2022-07-04T02:53:07;12.40;99.90
4615;DHT22;2320;51.362;6.946;2022-07-04T02:55:32;12.40;99.90
4615;DHT22;2320;51.362;6.946;2022-07-04T02:57:58;12.30;99.90
4615;DHT22;2320;51.362;6.946;2022-07-04T03:00:24;12.30;99.90
4615;DHT22;2320;51.362;6.946;2022-07-04T03:02:49;12.20;99.90
4615;DHT22;2320;51.362;6.946;2022-07-04T03:05:15;12.10;99.90
4615;DHT22;2320;51.362;6.946;2022-07-04T03:07:41;12.10;99.90
4615;DHT22;2320;51.362;6.946;2022-07-04T03:10:06;12.10;99.90
4615;DHT22;2320;51.362;6.946;2022-07-04T03:12:32;11.90;99.90
4615;DHT22;2320;51.362;6.946;2022-07-04T03:14:57;11.90;99.90
4615;DHT22;2320;51.362;6.946;2022-07-04T03:17:24;12.00;99.90
4615;DHT22;2320;51.362;6.946;2022-07-04T03:19:50;12.00;99.90
4615;DHT22;2320;51.362;6.946;2022-07-04T03:22:16;12.10;99.90
4615;DHT22;2320;51.362;6.946;2022-07-04T03:24:41;11.90;99.90
4615;DHT22;2320;51.362;6.946;2022-07-04T03:27:07;12.00;99.90
4615;DHT22;2320;51.362;6.946;2022-07-04T03:29:32;11.90;99.90
4615;DHT22;2320;51.362;6.946;2022-07-04T03:31:58;12.00;99.90
4615;DHT22;2320;51.362;6.946;2022-07-04T03:34:23;11.90;99.90
4615;DHT22;2320;51.362;6.946;2022-07-04T03:36:49;12.00;99.90
4615;DHT22;2320;51.362;6.946;2022-07-04T03:39:14;12.00;99.90
4615;DHT22;2320;51.362;6.946;2022-07-04T03:41:40;12.10;99.90
4615;DHT22;2320;51.362;6.946;2022-07-04T03:44:05;12.20;99.90
4615;DHT22;2320;51.362;6.946;2022-07-04T03:46:31;12.20;99.90
4615;DHT22;2320;51.362;6.946;2022-07-04T03:48:56;12.30;99.90
4615;DHT22;2320;51.362;6.946;2022-07-04T03:51:22;12.30;99.90
4615;DHT22;2320;51.362;6.946;2022-07-04T03:53:48;12.20;99.90
4615;DHT22;2320;51.362;6.946;2022-07-04T03:56:14;12.30;99.90
4615;DHT22;2320;51.362;6.946;2022-07-04T03:58:39;12.30;99.90
4615;DHT22;2320;51.362;6.946;2022-07-04T04:01:08;12.40;99.90
4615;DHT22;2320;51.362;6.946;2022-07-04T04:03:33;12.40;99.90
4615;DHT22;2320;51.362;6.946;2022-07-04T04:06:37;12.30;99.90
4615;DHT22;2320;51.362;6.946;2022-07-04T04:09:03;12.20;99.90
4615;DHT22;2320;51.362;6.946;2022-07-04T04:11:28;12.30;99.90
4615;DHT22;2320;51.362;6.946;2022-07-04T04:13:54;12.30;99.90
4615;DHT22;2320;51.362;6.946;2022-07-04T04:16:19;12.30;99.90
4615;DHT22;2320;51.362;6.946;2022-07-04T04:18:45;12.20;99.90
4615;DHT22;2320;51.362;6.946;2022-07-04T04:21:10;12.20;99.90
4615;DHT22;2320;51.362;6.946;2022-07-04T04:23:36;12.40;99.90
4615;DHT22;2320;51.362;6.946;2022-07-04T04:26:01;12.50;99.90
4615;DHT22;2320;51.362;6.946;2022-07-04T04:28:27;12.70;99.90
4615;DHT22;2320;51.362;6.946;2022-07-04T04:30:52;12.70;99.90
4615;DHT22;2320;51.362;6.946;2022-07-04T04:33:17;12.80;99.90
4615;DHT22;2320;51.362;6.946;2022-07-04T04:35:43;12.90;99.90
4615;DHT22;2320;51.362;6.946;2022-07-04T04:38:08;12.80;99.90
4615;DHT22;2320;51.362;6.946;2022-07-04T04:40:34;12.90;99.90
4615;DHT22;2320;51.362;6.946;2022-07-04T04:42:59;12.80;99.90
4615;DHT22;2320;51.362;6.946;2022-07-04T04:45:25;12.80;99.90
4615;DHT22;2320;51.362;6.946;2022-07-04T04:47:50;13.00;99.90
4615;DHT22;2320;51.362;6.946;2022-07-04T04:50:19;13.10;99.90
4615;DHT22;2320;51.362;6.946;2022-07-04T04:52:44;13.30;99.90
4615;DHT22;2320;51.362;6.946;2022-07-04T04:55:10;13.40;99.90
4615;DHT22;2320;51.362;6.946;2022-07-04T04:57:36;13.50;99.90
4615;DHT22;2320;51.362;6.946;2022-07-04T05:00:02;14.30;99.90
4615;DHT22;2320;51.362;6.946;2022-07-04T05:02:29;15.90;99.90
4615;DHT22;2320;51.362;6.946;2022-07-04T05:04:55;18.00;99.90
4615;DHT22;2320;51.362;6.946;2022-07-04T05:07:20;19.30;99.90
4615;DHT22;2320;51.362;6.946;2022-07-04T05:09:46;20.60;99.90
4615;DHT22;2320;51.362;6.946;2022-07-04T05:12:11;20.70;99.90
4615;DHT22;2320;51.362;6.946;2022-07-04T05:14:38;20.70;99.90
4615;DHT22;2320;51.362;6.946;2022-07-04T05:17:03;21.10;99.90
4615;DHT22;2320;51.362;6.946;2022-07-04T05:19:29;21.40;99.90
4615;DHT22;2320;51.362;6.946;2022-07-04T05:21:54;23.00;99.90
4615;DHT22;2320;51.362;6.946;2022-07-04T05:24:20;23.00;99.90
4615;DHT22;2320;51.362;6.946;2022-07-04T05:26:46;24.10;99.90
4615;DHT22;2320;51.362;6.946;2022-07-04T05:29:11;24.00;99.90
4615;DHT22;2320;51.362;6.946;2022-07-04T05:31:37;24.80;99.90
4615;DHT22;2320;51.362;6.946;2022-07-04T05:34:02;26.40;99.90
4615;DHT22;2320;51.362;6.946;2022-07-04T05:36:28;26.60;99.90
4615;DHT22;2320;51.362;6.946;2022-07-04T05:38:54;27.00;99.90
4615;DHT22;2320;51.362;6.946;2022-07-04T05:41:19;27.70;99.90
4615;DHT22;2320;51.362;6.946;2022-07-04T05:43:45;28.90;99.90
4615;DHT22;2320;51.362;6.946;2022-07-04T05:46:10;29.70;99.90
4615;DHT22;2320;51.362;6.946;2022-07-04T05:48:36;30.00;99.90
4615;DHT22;2320;51.362;6.946;2022-07-04T05:51:02;29.50;99.90
4615;DHT22;2320;51.362;6.946;2022-07-04T05:53:28;30.10;99.90
4615;DHT22;2320;51.362;6.946;2022-07-04T05:55:53;30.60;99.90
4615;DHT22;2320;51.362;6.946;2022-07-04T05:58:19;31.40;97.70
4615;DHT22;2320;51.362;6.946;2022-07-04T06:00:44;31.90;96.50
4615;DHT22;2320;51.362;6.946;2022-07-04T06:03:10;32.40;95.10
4615;DHT22;2320;51.362;6.946;2022-07-04T06:05:35;32.90;92.90
4615;DHT22;2320;51.362;6.946;2022-07-04T06:08:01;33.20;91.60
4615;DHT22;2320;51.362;6.946;2022-07-04T06:10:27;33.50;90.20
4615;DHT22;2320;51.362;6.946;2022-07-04T06:12:53;34.10;86.80
4615;DHT22;2320;51.362;6.946;2022-07-04T06:15:18;34.30;84.40
4615;DHT22;2320;51.362;6.946;2022-07-04T06:17:44;34.30;83.10
4615;DHT22;2320;51.362;6.946;2022-07-04T06:20:09;34.40;79.50
4615;DHT22;2320;51.362;6.946;2022-07-04T06:22:41;34.20;78.70
4615;DHT22;2320;51.362;6.946;2022-07-04T06:25:11;34.30;78.20
4615;DHT22;2320;51.362;6.946;2022-07-04T06:27:37;34.80;77.70
4615;DHT22;2320;51.362;6.946;2022-07-04T06:30:02;34.80;74.70
4615;DHT22;2320;51.362;6.946;2022-07-04T06:32:28;34.90;73.20
4615;DHT22;2320;51.362;6.946;2022-07-04T06:34:54;35.50;73.50
4615;DHT22;2320;51.362;6.946;2022-07-04T06:37:38;35.80;71.70
4615;DHT22;2320;51.362;6.946;2022-07-04T06:40:03;36.30;68.50
4615;DHT22;2320;51.362;6.946;2022-07-04T06:42:29;36.30;66.90
4615;DHT22;2320;51.362;6.946;2022-07-04T06:44:54;35.90;67.00
4615;DHT22;2320;51.362;6.946;2022-07-04T06:47:20;35.50;66.80
4615;DHT22;2320;51.362;6.946;2022-07-04T06:49:45;36.20;65.80
4615;DHT22;2320;51.362;6.946;2022-07-04T06:52:11;36.60;63.90
4615;DHT22;2320;51.362;6.946;2022-07-04T06:54:36;36.70;63.90
4615;DHT22;2320;51.362;6.946;2022-07-04T06:57:02;36.90;61.80
4615;DHT22;2320;51.362;6.946;2022-07-04T06:59:27;36.80;61.00
4615;DHT22;2320;51.362;6.946;2022-07-04T07:01:53;36.60;61.40
4615;DHT22;2320;51.362;6.946;2022-07-04T07:04:18;36.80;59.60
4615;DHT22;2320;51.362;6.946;2022-07-04T07:06:44;37.30;59.00
4615;DHT22;2320;51.362;6.946;2022-07-04T07:09:09;37.70;58.70
4615;DHT22;2320;51.362;6.946;2022-07-04T07:11:35;38.10;58.30
4615;DHT22;2320;51.362;6.946;2022-07-04T07:14:00;38.70;57.70
4615;DHT22;2320;51.362;6.946;2022-07-04T07:16:26;39.30;56.20
4615;DHT22;2320;51.362;6.946;2022-07-04T07:18:52;39.40;54.60
4615;DHT22;2320;51.362;6.946;2022-07-04T07:21:17;39.30;55.40
4615;DHT22;2320;51.362;6.946;2022-07-04T07:23:43;39.60;53.00
4615;DHT22;2320;51.362;6.946;2022-07-04T07:26:09;39.20;52.90
4615;DHT22;2320;51.362;6.946;2022-07-04T07:28:34;39.30;52.70
4615;DHT22;2320;51.362;6.946;2022-07-04T07:31:00;38.60;51.50
4615;DHT22;2320;51.362;6.946;2022-07-04T07:33:26;38.10;51.20
4615;DHT22;2320;51.362;6.946;2022-07-04T07:35:51;38.10;51.40
4615;DHT22;2320;51.362;6.946;2022-07-04T07:38:17;38.20;51.70
4615;DHT22;2320;51.362;6.946;2022-07-04T07:40:42;38.60;50.80
4615;DHT22;2320;51.362;6.946;2022-07-04T07:43:08;38.70;50.00
4615;DHT22;2320;51.362;6.946;2022-07-04T07:45:33;38.80;49.80
4615;DHT22;2320;51.362;6.946;2022-07-04T07:47:59;39.10;49.90
4615;DHT22;2320;51.362;6.946;2022-07-04T07:50:25;39.60;49.30
4615;DHT22;2320;51.362;6.946;2022-07-04T07:52:50;39.10;49.20
4615;DHT22;2320;51.362;6.946;2022-07-04T07:55:15;39.10;48.80
4615;DHT22;2320;51.362;6.946;2022-07-04T07:57:41;38.80;49.50
4615;DHT22;2320;51.362;6.946;2022-07-04T08:00:07;39.10;48.90
4615;DHT22;2320;51.362;6.946;2022-07-04T08:02:32;38.40;47.30
4615;DHT22;2320;51.362;6.946;2022-07-04T08:05:17;38.50;47.80
4615;DHT22;2320;51.362;6.946;2022-07-04T08:07:42;38.80;48.40
4615;DHT22;2320;51.362;6.946;2022-07-04T08:10:08;39.30;46.70
4615;DHT22;2320;51.362;6.946;2022-07-04T08:12:34;39.00;47.30
4615;DHT22;2320;51.362;6.946;2022-07-04T08:14:59;39.00;46.90
4615;DHT22;2320;51.362;6.946;2022-07-04T08:17:25;38.50;47.30
4615;DHT22;2320;51.362;6.946;2022-07-04T08:19:50;38.50;46.30
4615;DHT22;2320;51.362;6.946;2022-07-04T08:22:16;38.80;46.80
4615;DHT22;2320;51.362;6.946;2022-07-04T08:24:42;39.10;46.50
4615;DHT22;2320;51.362;6.946;2022-07-04T08:27:08;39.20;45.90
4615;DHT22;2320;51.362;6.946;2022-07-04T08:29:34;39.70;45.00
4615;DHT22;2320;51.362;6.946;2022-07-04T08:32:00;39.30;45.10
4615;DHT22;2320;51.362;6.946;2022-07-04T08:34:25;39.70;45.90
4615;DHT22;2320;51.362;6.946;2022-07-04T08:36:51;40.60;45.00
4615;DHT22;2320;51.362;6.946;2022-07-04T08:39:16;40.60;43.30
4615;DHT22;2320;51.362;6.946;2022-07-04T08:41:42;40.40;42.80
4615;DHT22;2320;51.362;6.946;2022-07-04T08:44:08;39.50;42.60
4615;DHT22;2320;51.362;6.946;2022-07-04T08:46:38;39.50;43.90
4615;DHT22;2320;51.362;6.946;2022-07-04T08:49:07;39.70;43.70
4615;DHT22;2320;51.362;6.946;2022-07-04T08:51:47;40.00;43.20
4615;DHT22;2320;51.362;6.946;2022-07-04T08:54:13;39.50;44.00
4615;DHT22;2320;51.362;6.946;2022-07-04T08:56:58;39.40;43.40
4615;DHT22;2320;51.362;6.946;2022-07-04T08:59:42;38.60;43.00
4615;DHT22;2320;51.362;6.946;2022-07-04T09:02:11;38.30;44.20
4615;DHT22;2320;51.362;6.946;2022-07-04T09:04:38;39.00;44.60
4615;DHT22;2320;51.362;6.946;2022-07-04T09:07:04;39.50;43.10
4615;DHT22;2320;51.362;6.946;2022-07-04T09:09:29;39.80;43.30
4615;DHT22;2320;51.362;6.946;2022-07-04T09:11:58;40.20;43.10
4615;DHT22;2320;51.362;6.946;2022-07-04T09:14:23;40.00;43.40
4615;DHT22;2320;51.362;6.946;2022-07-04T09:16:49;39.60;43.80
4615;DHT22;2320;51.362;6.946;2022-07-04T09:19:20;39.90;43.30
4615;DHT22;2320;51.362;6.946;2022-07-04T09:21:46;40.40;43.30
4615;DHT22;2320;51.362;6.946;2022-07-04T09:24:12;39.70;43.80
4615;DHT22;2320;51.362;6.946;2022-07-04T09:26:45;39.80;43.50
4615;DHT22;2320;51.362;6.946;2022-07-04T09:29:10;39.90;43.30
4615;DHT22;2320;51.362;6.946;2022-07-04T09:31:37;39.80;42.90
4615;DHT22;2320;51.362;6.946;2022-07-04T09:34:03;39.70;42.90
4615;DHT22;2320;51.362;6.946;2022-07-04T09:36:30;39.30;43.40
4615;DHT22;2320;51.362;6.946;2022-07-04T09:39:05;39.20;44.10
4615;DHT22;2320;51.362;6.946;2022-07-04T09:41:31;39.50;43.80
4615;DHT22;2320;51.362;6.946;2022-07-04T09:44:14;39.70;43.70
4615;DHT22;2320;51.362;6.946;2022-07-04T09:46:39;39.80;43.90
4615;DHT22;2320;51.362;6.946;2022-07-04T09:49:05;38.60;42.60
4615;DHT22;2320;51.362;6.946;2022-07-04T09:54:15;38.60;44.60
4615;DHT22;2320;51.362;6.946;2022-07-04T09:56:41;38.90;43.70
4615;DHT22;2320;51.362;6.946;2022-07-04T09:59:07;38.70;44.70
4615;DHT22;2320;51.362;6.946;2022-07-04T10:01:33;38.80;42.80
4615;DHT22;2320;51.362;6.946;2022-07-04T10:03:58;39.00;44.10
4615;DHT22;2320;51.362;6.946;2022-07-04T10:06:24;39.70;43.00
4615;DHT22;2320;51.362;6.946;2022-07-04T10:08:50;39.10;43.50
4615;DHT22;2320;51.362;6.946;2022-07-04T10:11:15;39.00;43.30
4615;DHT22;2320;51.362;6.946;2022-07-04T10:13:41;38.60;44.00
4615;DHT22;2320;51.362;6.946;2022-07-04T10:16:07;38.60;42.70
4615;DHT22;2320;51.362;6.946;2022-07-04T10:18:33;38.70;42.70
4615;DHT22;2320;51.362;6.946;2022-07-04T10:20:59;38.50;44.10
4615;DHT22;2320;51.362;6.946;2022-07-04T10:23:25;38.70;44.20
4615;DHT22;2320;51.362;6.946;2022-07-04T10:25:56;38.70;43.80
4615;DHT22;2320;51.362;6.946;2022-07-04T10:28:22;38.40;44.50
4615;DHT22;2320;51.362;6.946;2022-07-04T10:30:49;38.50;43.60
4615;DHT22;2320;51.362;6.946;2022-07-04T10:33:15;38.30;43.50
4615;DHT22;2320;51.362;6.946;2022-07-04T10:35:52;38.30;43.80
4615;DHT22;2320;51.362;6.946;2022-07-04T10:38:20;38.50;43.30
4615;DHT22;2320;51.362;6.946;2022-07-04T10:40:50;38.80;43.10
4615;DHT22;2320;51.362;6.946;2022-07-04T10:46:07;37.60;42.90
4615;DHT22;2320;51.362;6.946;2022-07-04T10:48:48;36.50;44.20
4615;DHT22;2320;51.362;6.946;2022-07-04T10:51:14;36.00;46.00
4615;DHT22;2320;51.362;6.946;2022-07-04T10:58:54;37.40;43.80
4615;DHT22;2320;51.362;6.946;2022-07-04T11:01:20;37.50;44.90
4615;DHT22;2320;51.362;6.946;2022-07-04T11:03:46;37.90;44.20
4615;DHT22;2320;51.362;6.946;2022-07-04T11:09:18;38.00;43.30
4615;DHT22;2320;51.362;6.946;2022-07-04T11:11:51;36.70;43.40
4615;DHT22;2320;51.362;6.946;2022-07-04T11:17:03;34.30;46.80
4615;DHT22;2320;51.362;6.946;2022-07-04T11:19:29;34.60;47.80
4615;DHT22;2320;51.362;6.946;2022-07-04T11:21:55;35.00;45.70
4615;DHT22;2320;51.362;6.946;2022-07-04T11:24:21;34.20;45.70
4615;DHT22;2320;51.362;6.946;2022-07-04T11:26:46;33.70;46.90
4615;DHT22;2320;51.362;6.946;2022-07-04T11:29:12;33.90;47.90
4615;DHT22;2320;51.362;6.946;2022-07-04T11:31:39;33.60;47.00
4615;DHT22;2320;51.362;6.946;2022-07-04T11:34:05;32.90;47.60
4615;DHT22;2320;51.362;6.946;2022-07-04T11:36:31;32.50;49.20
4615;DHT22;2320;51.362;6.946;2022-07-04T11:38:57;32.90;49.50
4615;DHT22;2320;51.362;6.946;2022-07-04T11:41:24;33.70;49.30
4615;DHT22;2320;51.362;6.946;2022-07-04T11:44:13;33.20;49.20
4615;DHT22;2320;51.362;6.946;2022-07-04T11:49:28;33.50;47.60
4615;DHT22;2320;51.362;6.946;2022-07-04T11:51:54;33.80;48.20
4615;DHT22;2320;51.362;6.946;2022-07-04T11:54:21;33.70;48.20
4615;DHT22;2320;51.362;6.946;2022-07-04T11:56:47;33.50;48.60
4615;DHT22;2320;51.362;6.946;2022-07-04T11:59:13;33.00;48.40
4615;DHT22;2320;51.362;6.946;2022-07-04T12:01:39;32.30;48.90
4615;DHT22;2320;51.362;6.946;2022-07-04T12:04:18;32.00;49.70
4615;DHT22;2320;51.362;6.946;2022-07-04T12:06:44;31.30;50.30
4615;DHT22;2320;51.362;6.946;2022-07-04T12:09:10;30.90;49.40
4615;DHT22;2320;51.362;6.946;2022-07-04T12:14:20;30.00;51.20
4615;DHT22;2320;51.362;6.946;2022-07-04T12:16:46;30.10;51.50
4615;DHT22;2320;51.362;6.946;2022-07-04T12:19:12;30.30;53.20
4615;DHT22;2320;51.362;6.946;2022-07-04T12:21:38;30.40;52.50
4615;DHT22;2320;51.362;6.946;2022-07-04T12:24:04;30.10;51.40
4615;DHT22;2320;51.362;6.946;2022-07-04T12:26:30;29.50;51.90
4615;DHT22;2320;51.362;6.946;2022-07-04T12:28:55;29.30;52.70
4615;DHT22;2320;51.362;6.946;2022-07-04T12:34:15;29.00;53.60
4615;DHT22;2320;51.362;6.946;2022-07-04T12:36:54;28.90;54.10
4615;DHT22;2320;51.362;6.946;2022-07-04T12:39:29;28.70;54.60
4615;DHT22;2320;51.362;6.946;2022-07-04T12:44:39;28.50;54.80
4615;DHT22;2320;51.362;6.946;2022-07-04T12:47:05;28.60;54.30
4615;DHT22;2320;51.362;6.946;2022-07-04T12:49:31;28.50;54.30
4615;DHT22;2320;51.362;6.946;2022-07-04T12:52:04;28.40;54.80
4615;DHT22;2320;51.362;6.946;2022-07-04T12:54:29;28.20;55.50
4615;DHT22;2320;51.362;6.946;2022-07-04T12:57:03;28.20;55.30
4615;DHT22;2320;51.362;6.946;2022-07-04T12:59:29;28.30;55.70
4615;DHT22;2320;51.362;6.946;2022-07-04T13:01:54;28.20;55.20
4615;DHT22;2320;51.362;6.946;2022-07-04T13:04:20;28.20;54.90
4615;DHT22;2320;51.362;6.946;2022-07-04T13:06:45;28.50;56.00
4615;DHT22;2320;51.362;6.946;2022-07-04T13:09:12;28.70;54.60
4615;DHT22;2320;51.362;6.946;2022-07-04T13:11:38;28.50;52.50
4615;DHT22;2320;51.362;6.946;2022-07-04T13:14:22;28.50;54.40
4615;DHT22;2320;51.362;6.946;2022-07-04T13:16:47;28.70;54.40
4615;DHT22;2320;51.362;6.946;2022-07-04T13:19:13;28.60;54.10
4615;DHT22;2320;51.362;6.946;2022-07-04T13:21:38;28.80;55.40
4615;DHT22;2320;51.362;6.946;2022-07-04T13:24:04;28.60;54.70
4615;DHT22;2320;51.362;6.946;2022-07-04T13:26:29;28.50;55.10
4615;DHT22;2320;51.362;6.946;2022-07-04T13:28:57;28.60;55.60
4615;DHT22;2320;51.362;6.946;2022-07-04T13:31:23;28.70;54.70
4615;DHT22;2320;51.362;6.946;2022-07-04T13:33:48;29.00;54.80
4615;DHT22;2320;51.362;6.946;2022-07-04T13:36:14;28.90;53.60
4615;DHT22;2320;51.362;6.946;2022-07-04T13:38:40;28.60;54.10
4615;DHT22;2320;51.362;6.946;2022-07-04T13:41:06;28.60;55.20
4615;DHT22;2320;51.362;6.946;2022-07-04T13:43:31;28.60;55.00
4615;DHT22;2320;51.362;6.946;2022-07-04T13:45:57;28.70;55.50
4615;DHT22;2320;51.362;6.946;2022-07-04T13:48:23;28.60;54.60
4615;DHT22;2320;51.362;6.946;2022-07-04T13:50:49;28.60;54.60
4615;DHT22;2320;51.362;6.946;2022-07-04T13:53:15;28.40;55.10
4615;DHT22;2320;51.362;6.946;2022-07-04T13:55:41;28.50;54.80
4615;DHT22;2320;51.362;6.946;2022-07-04T13:58:07;28.40;55.10
4615;DHT22;2320;51.362;6.946;2022-07-04T14:00:33;28.40;54.80
4615;DHT22;2320;51.362;6.946;2022-07-04T14:02:58;28.30;55.40
4615;DHT22;2320;51.362;6.946;2022-07-04T14:05:24;28.20;55.40
4615;DHT22;2320;51.362;6.946;2022-07-04T14:07:53;28.10;56.00
4615;DHT22;2320;51.362;6.946;2022-07-04T14:10:18;28.10;56.30
4615;DHT22;2320;51.362;6.946;2022-07-04T14:12:44;28.20;56.80
4615;DHT22;2320;51.362;6.946;2022-07-04T14:15:10;28.40;56.50
4615;DHT22;2320;51.362;6.946;2022-07-04T14:17:36;28.50;56.50
4615;DHT22;2320;51.362;6.946;2022-07-04T14:20:02;28.70;55.90
4615;DHT22;2320;51.362;6.946;2022-07-04T14:22:29;28.80;55.10
4615;DHT22;2320;51.362;6.946;2022-07-04T14:24:54;28.60;55.20
4615;DHT22;2320;51.362;6.946;2022-07-04T14:27:20;28.40;55.10
4615;DHT22;2320;51.362;6.946;2022-07-04T14:29:45;28.20;55.60
4615;DHT22;2320;51.362;6.946;2022-07-04T14:32:11;27.90;55.60
4615;DHT22;2320;51.362;6.946;2022-07-04T14:34:36;27.90;56.80
4615;DHT22;2320;51.362;6.946;2022-07-04T14:37:02;27.90;56.90
4615;DHT22;2320;51.362;6.946;2022-07-04T14:39:27;27.80;57.60
4615;DHT22;2320;51.362;6.946;2022-07-04T14:41:53;27.80;56.90
4615;DHT22;2320;51.362;6.946;2022-07-04T14:44:19;27.60;57.50
4615;DHT22;2320;51.362;6.946;2022-07-04T14:46:44;27.50;58.20
4615;DHT22;2320;51.362;6.946;2022-07-04T14:49:10;27.40;58.30
4615;DHT22;2320;51.362;6.946;2022-07-04T14:51:35;27.50;58.70
4615;DHT22;2320;51.362;6.946;2022-07-04T14:54:01;27.40;58.90
4615;DHT22;2320;51.362;6.946;2022-07-04T14:56:27;27.40;58.90
4615;DHT22;2320;51.362;6.946;2022-07-04T14:58:52;27.20;58.80
4615;DHT22;2320;51.362;6.946;2022-07-04T15:01:18;27.30;58.90
4615;DHT22;2320;51.362;6.946;2022-07-04T15:03:45;27.20;58.60
4615;DHT22;2320;51.362;6.946;2022-07-04T15:06:10;27.30;59.60
4615;DHT22;2320;51.362;6.946;2022-07-04T15:08:36;27.10;58.80
4615;DHT22;2320;51.362;6.946;2022-07-04T15:11:01;26.90;58.70
4615;DHT22;2320;51.362;6.946;2022-07-04T15:13:27;27.10;59.60
4615;DHT22;2320;51.362;6.946;2022-07-04T15:15:53;27.40;59.20
4615;DHT22;2320;51.362;6.946;2022-07-04T15:18:19;27.60;58.40
4615;DHT22;2320;51.362;6.946;2022-07-04T15:20:44;27.70;58.30
4615;DHT22;2320;51.362;6.946;2022-07-04T15:23:28;27.70;58.30
4615;DHT22;2320;51.362;6.946;2022-07-04T15:26:12;27.10;57.60
4615;DHT22;2320;51.362;6.946;2022-07-04T15:28:38;26.80;59.30
4615;DHT22;2320;51.362;6.946;2022-07-04T15:31:04;26.80;59.20
4615;DHT22;2320;51.362;6.946;2022-07-04T15:33:29;26.70;59.40
4615;DHT22;2320;51.362;6.946;2022-07-04T15:35:56;26.70;59.30
4615;DHT22;2320;51.362;6.946;2022-07-04T15:38:22;26.70;59.10
4615;DHT22;2320;51.362;6.946;2022-07-04T15:40:48;26.80;59.10
4615;DHT22;2320;51.362;6.946;2022-07-04T15:43:13;26.70;59.10
4615;DHT22;2320;51.362;6.946;2022-07-04T15:45:39;26.50;58.90
4615;DHT22;2320;51.362;6.946;2022-07-04T15:48:05;26.50;58.80
4615;DHT22;2320;51.362;6.946;2022-07-04T15:50:30;26.40;59.00
4615;DHT22;2320;51.362;6.946;2022-07-04T15:52:56;26.20;59.10
4615;DHT22;2320;51.362;6.946;2022-07-04T15:55:21;26.10;59.10
4615;DHT22;2320;51.362;6.946;2022-07-04T15:57:47;26.00;58.60
4615;DHT22;2320;51.362;6.946;2022-07-04T16:00:12;26.10;59.50
4615;DHT22;2320;51.362;6.946;2022-07-04T16:02:38;26.10;59.50
4615;DHT22;2320;51.362;6.946;2022-07-04T16:05:04;26.20;59.80
4615;DHT22;2320;51.362;6.946;2022-07-04T16:07:29;26.30;60.00
4615;DHT22;2320;51.362;6.946;2022-07-04T16:09:55;26.30;60.00
4615;DHT22;2320;51.362;6.946;2022-07-04T16:12:21;26.40;61.00
4615;DHT22;2320;51.362;6.946;2022-07-04T16:14:46;26.40;60.70
4615;DHT22;2320;51.362;6.946;2022-07-04T16:17:11;26.10;59.50
4615;DHT22;2320;51.362;6.946;2022-07-04T16:19:37;26.10;60.60
4615;DHT22;2320;51.362;6.946;2022-07-04T16:22:03;26.20;61.10
4615;DHT22;2320;51.362;6.946;2022-07-04T16:24:28;26.10;61.40
4615;DHT22;2320;51.362;6.946;2022-07-04T16:26:54;26.10;60.80